Snow/Ice From: 23-10-2018 22:46 Until: 24-10-2018 08:00 warning for: Snow/Ice Level: Yellow info button
suomi:
Liikennesää: Ajokeli on huono tienpintojen jäätymisen vuoksi.

svenska:
Trafikvädret: Väglaget är dåligt p.g.a. tillfrysning av vägytor.

english:
Traffic weather warning: Bad road conditions are expected because of ice-covered roads. 


Thunder radar more information blitzortung!


Löydät sääaseman tiedot myös:

European Weather Network

Finland Weather Exchange

Weather Underground

AWEKAS



Weather Underground säähistoriasivu

Päivittäin yhteenveto Elokuu 25, 2017 Yksiköt:  Englantilaiset    Metriset   Molemmat
« Edellinen Päivä
Seuraava Päivä »
Päivittäin Viikoittain Kuukausittain Vuosittain Mukautettu
  Korkea: Matala: Keskiarvo:
Lämpötila: TemperatureF °F 38.1 °F 47.1 °F
Kastepiste: DewpointF °F 36.9 °F 42.6 °F
Kosteus: Humidity % 68 % 84 %
Tuulen nopeus: WindSpeedMPH mph 0.0 mph 1 mph
Tuulenpuuska: WindSpeedGustMPH mph - -
Tuuli:- - WSW
Ilmanpaine: PressureIn in 29.62 in -
Sade: 0.18 in    
Historical Graphs
 
 
Taulukkotiedot Elokuu 25, 2017
Aika Lämpötila Kastepiste Ilmanpaine Tuuli Tuulen nopeus Tuulenpuuska Kosteus Sademäärä (tunneittain)
TemperatureF °F DewpointF °F PressureIn in Calm     Humidity % HourlyPrecipIn in
00:00 41.5 °F 39.7 °F 29.70 in Calm     93 % 0.00 in
00:15 41.4 °F 39.4 °F 29.70 in Calm     93 % 0.00 in
00:30 41.0 °F 39.2 °F 29.70 in Calm     93 % 0.00 in
00:45 41.0 °F 39.4 °F 29.70 in Calm     94 % 0.00 in
01:00 41.2 °F 39.9 °F 29.69 in Calm     95 % 0.00 in
01:15 41.5 °F 40.1 °F 29.69 in Calm     95 % 0.00 in
01:30 41.9 °F 40.6 °F 29.69 in Calm     95 % 0.00 in
01:45 41.7 °F 40.3 °F 29.68 in Calm     94 % 0.00 in
02:00 41.5 °F 39.9 °F 29.68 in Calm     94 % 0.00 in
02:15 41.2 °F 39.6 °F 29.68 in Calm     94 % 0.00 in
02:30 40.6 °F 39.0 °F 29.68 in Calm     94 % 0.00 in
02:45 40.3 °F 38.7 °F 29.67 in Calm     94 % 0.00 in
03:00 39.7 °F 38.3 °F 29.67 in Calm     94 % 0.00 in
03:15 40.5 °F 39.4 °F 29.67 in Calm     96 % 0.00 in
03:30 41.9 °F 40.8 °F 29.67 in Calm   1.0 mph 96 % 0.00 in
03:45 42.8 °F 41.7 °F 29.67 in Calm   1.0 mph 96 % 0.00 in
04:00 43.2 °F 41.9 °F 29.67 in Calm     95 % 0.00 in
04:15 42.6 °F 41.2 °F 29.67 in Calm     94 % 0.00 in
04:30 41.7 °F 39.7 °F 29.66 in Calm     93 % 0.00 in
04:45 41.0 °F 39.4 °F 29.66 in Calm     94 % 0.00 in
05:00 40.3 °F 38.7 °F 29.66 in Calm     94 % 0.00 in
05:15 39.7 °F 38.1 °F 29.66 in Calm     94 % 0.00 in
05:30 39.6 °F 38.3 °F 29.65 in Calm     95 % 0.00 in
05:45 39.7 °F 38.5 °F 29.65 in Calm     95 % 0.00 in
06:00 39.4 °F 37.9 °F 29.65 in Calm     95 % 0.00 in
06:15 38.7 °F 37.2 °F 29.65 in Calm     95 % 0.00 in
06:30 38.5 °F 37.0 °F 29.65 in Calm     95 % 0.00 in
06:45 38.1 °F 36.9 °F 29.65 in Calm     95 % 0.00 in
07:00 38.3 °F 37.2 °F 29.65 in Calm     96 % 0.00 in
07:15 38.5 °F 37.4 °F 29.65 in Calm     96 % 0.00 in
07:30 39.0 °F 37.9 °F 29.65 in Calm     96 % 0.00 in
07:45 39.7 °F 38.8 °F 29.65 in Calm     97 % 0.00 in
08:00 41.4 °F 40.5 °F 29.65 in Calm   2.0 mph 97 % 0.00 in
08:15 43.2 °F 42.3 °F 29.64 in SW 1.0 mph 4.0 mph 97 % 0.00 in
08:30 44.4 °F 43.7 °F 29.64 in SSW 1.0 mph 4.0 mph 97 % 0.00 in
08:45 45.7 °F 45.0 °F 29.64 in Calm   5.0 mph 97 % 0.00 in
09:00 47.5 °F 45.5 °F 29.64 in SW 2.0 mph 9.0 mph 93 % 0.00 in
09:15 48.7 °F 45.7 °F 29.64 in SW 1.0 mph 7.0 mph 89 % 0.00 in
09:30 50.2 °F 45.7 °F 29.64 in WNW 3.0 mph 9.0 mph 85 % 0.00 in
09:45 50.9 °F 45.7 °F 29.64 in WNW 4.0 mph 14.0 mph 82 % 0.00 in
10:00 51.4 °F 45.5 °F 29.64 in NW 2.0 mph 6.0 mph 80 % 0.00 in
10:15 51.4 °F 44.6 °F 29.64 in WNW 2.0 mph 11.0 mph 77 % 0.00 in
10:30 52.0 °F 45.7 °F 29.63 in WSW 1.0 mph 5.0 mph 79 % 0.00 in
10:45 53.1 °F 45.0 °F 29.64 in WNW 3.0 mph 9.0 mph 74 % 0.00 in
11:00 54.0 °F 44.8 °F 29.63 in West 3.0 mph 11.0 mph 71 % 0.00 in
11:15 55.0 °F 45.5 °F 29.64 in WNW 3.0 mph 10.0 mph 70 % 0.00 in
11:30 55.2 °F 44.8 °F 29.64 in West 4.0 mph 10.0 mph 68 % 0.00 in
11:45 53.1 °F 44.6 °F 29.65 in West 2.0 mph 8.0 mph 73 % 0.00 in
12:00 53.4 °F 45.0 °F 29.64 in West 3.0 mph 10.0 mph 73 % 0.00 in
12:15 54.1 °F 45.0 °F 29.65 in WNW 2.0 mph 9.0 mph 71 % 0.00 in
12:30 53.2 °F 44.4 °F 29.65 in WNW 3.0 mph 10.0 mph 72 % 0.00 in
12:45 53.2 °F 44.1 °F 29.65 in West 2.0 mph 9.0 mph 71 % 0.00 in
13:00 52.7 °F 44.6 °F 29.65 in NW 2.0 mph 9.0 mph 74 % 0.00 in
13:15 53.4 °F 44.6 °F 29.65 in West 3.0 mph 7.0 mph 72 % 0.00 in
13:30 53.2 °F 45.1 °F 29.65 in WNW 2.0 mph 7.0 mph 74 % 0.00 in
13:45 53.2 °F 44.8 °F 29.65 in West 2.0 mph 8.0 mph 73 % 0.00 in
14:00 54.0 °F 44.4 °F 29.66 in West 3.0 mph 8.0 mph 70 % 0.00 in
14:15 53.6 °F 43.7 °F 29.66 in West 3.0 mph 6.0 mph 69 % 0.00 in
14:30 53.2 °F 44.4 °F 29.66 in WNW 1.0 mph 5.0 mph 72 % 0.00 in
14:45 53.1 °F 44.2 °F 29.66 in WSW 2.0 mph 7.0 mph 72 % 0.00 in
15:00 53.2 °F 44.1 °F 29.66 in WNW 2.0 mph 9.0 mph 71 % 0.00 in
15:15 53.1 °F 44.6 °F 29.66 in WNW 2.0 mph 8.0 mph 73 % 0.00 in
15:30 52.9 °F 44.1 °F 29.66 in NW 2.0 mph 6.0 mph 72 % 0.00 in
15:45 52.3 °F 44.1 °F 29.67 in WNW 2.0 mph 13.0 mph 73 % 0.00 in
16:00 52.3 °F 44.4 °F 29.67 in WNW 1.0 mph 4.0 mph 74 % 0.00 in
16:15 52.2 °F 44.6 °F 29.67 in WNW 2.0 mph 5.0 mph 75 % 0.00 in
16:30 52.9 °F 44.4 °F 29.66 in WSW 2.0 mph 6.0 mph 73 % 0.00 in
16:45 53.1 °F 45.0 °F 29.66 in SSW 1.0 mph 8.0 mph 74 % 0.00 in
17:00 53.2 °F 44.8 °F 29.66 in SW 2.0 mph 5.0 mph 73 % 0.00 in
17:15 53.1 °F 45.0 °F 29.66 in Calm   3.0 mph 74 % 0.00 in
17:30 54.5 °F 46.0 °F 29.66 in South 2.0 mph 9.0 mph 73 % 0.00 in
17:45 54.9 °F 45.1 °F 29.66 in SW 2.0 mph 5.0 mph 70 % 0.00 in
18:00 54.0 °F 45.1 °F 29.65 in SSE 1.0 mph 4.0 mph 72 % 0.00 in
18:15 54.3 °F 45.9 °F 29.65 in SSW 1.0 mph 4.0 mph 73 % 0.00 in
18:30 54.1 °F 46.4 °F 29.65 in Calm     75 % 0.00 in
18:45 54.3 °F 45.9 °F 29.65 in West 1.0 mph 4.0 mph 73 % 0.00 in
19:00 54.1 °F 45.7 °F 29.65 in WSW 1.0 mph 5.0 mph 73 % 0.00 in
19:15 54.0 °F 45.9 °F 29.65 in WSW 1.0 mph 7.0 mph 74 % 0.00 in
19:30 53.2 °F 46.2 °F 29.65 in SW 1.0 mph 4.0 mph 77 % 0.00 in
19:45 52.9 °F 46.4 °F 29.65 in SSW 1.0 mph 4.0 mph 79 % 0.00 in
20:00 52.3 °F 46.9 °F 29.64 in Calm   3.0 mph 82 % 0.00 in
20:15 52.0 °F 46.9 °F 29.64 in Calm   1.0 mph 83 % 0.00 in
20:30 50.9 °F 47.8 °F 29.65 in Calm   1.0 mph 89 % 0.05 in
20:45 49.8 °F 47.3 °F 29.65 in SSW 1.0 mph 6.0 mph 91 % 0.09 in
21:00 48.4 °F 45.9 °F 29.64 in SSW 3.0 mph 9.0 mph 91 % 0.17 in
21:15 48.0 °F 46.0 °F 29.65 in SSW 2.0 mph 6.0 mph 93 % 0.17 in
21:30 47.8 °F 45.9 °F 29.64 in SW 1.0 mph 9.0 mph 93 % 0.13 in
21:45 47.5 °F 45.7 °F 29.64 in Calm   5.0 mph 94 % 0.08 in
22:00 46.9 °F 45.3 °F 29.64 in Calm   1.0 mph 94 % 0.00 in
22:30 46.2 °F 44.8 °F 29.63 in SSW 1.0 mph 5.0 mph 95 % 0.01 in
22:45 46.0 °F 44.6 °F 29.63 in SSW 1.0 mph 4.0 mph 95 % 0.01 in
23:00 46.0 °F 44.6 °F 29.62 in SSW 2.0 mph 5.0 mph 95 % 0.01 in
23:15 45.9 °F 44.6 °F 29.62 in SSW 1.0 mph 4.0 mph 95 % 0.01 in
23:30 45.7 °F 44.2 °F 29.62 in SSW 1.0 mph 6.0 mph 95 % 0.00 in
23:45 45.1 °F 43.9 °F 29.62 in Calm   3.0 mph 95 % 0.00 in
Esan sääasema
Terveisin Weather Underground - 2.75 mb

Alkuperäinen skripti  Jim McMurry - jmcmurry@mwt.net Sovitettu myös templatelle  Wim van der Kuil - Leuven-Template.eu

Laitteet joita käytämme:

Sääasema
Davis VP2

Sääasemaohjelma
Cumulus

Sääaseman tietokone
Asus EeePC

Palveluntarjoaja
Suncomet

Davis VP2

Cumulus

Asus EeePC

Suncomet